Airfield :
LOGIN :

Register | Disclaimer

   EN    FR    IT 

 










Legend :    VFR   Marginal VFR   IFR   Intensive IFR   Very Intensive IFR
Visi :
Ceiling :
>= 8 km
>= 3000ft
5 to 8 km
1000 to 3000 ft
1500m to 5 km
500 to 1000 ft
800 to 1500m
200 to 500 ft
< 800m
< 200 ft
Symbols :   Thunderstorms  Fog  Heavy snow  Heavy precipitations  Wind > 20 kt
SIGMETs :     Misc.  Thunderstorms  Icing  Turbulence  Mountain Waves  Volcanic Ashes






- Airport Elevation : 23 ft
- IATA code : XFW


EDHI - Hamburg Finkenwerder

CURRENT METAR :
  • 021520Z 28006KT 9999 FEW030 06/03 Q1020

EXPIRED METARs :
  • 021450Z 28007KT 9999 FEW035 06/02 Q1020
  • 021420Z 28010KT 9999 FEW027 06/02 Q1019
  • 021350Z 27006KT 9999 FEW027 07/03 Q1019
  • 021320Z 29012KT 9999 07/02 Q1019
  • 021250Z 29009KT 9999 FEW024 SCT034 06/03 Q1019

TAF TAF EDHI
Valid from the 02 at 15:00 until the 02 at 21:00 UTC


021400Z 0215/0221 29011KT 9999 SCT025
BECMG 0216/0218 20005KT



MET'MAP, your aeronautical weather chart ! - Copyright ORBIFLY December 2007 - Disclaimer

ORBIFLY MET'MAP TEAM :

Programming & Development : Alexandra Zaïnal
Original concept : Baudouin d'Aumeries
Technical & hardware support : Manuel Goepfert
Assistance : Marc-Olivier Méhu




SOURCES & CREDITS :

   NOAA